sensor_id;sensor_type;location;lat;lon;timestamp;pressure;altitude;pressure_sealevel;temperature;humidity
73692;BME280;61996;49.910;35.562;2023-05-03T00:01:51;100307.03;;;19.81;38.64
73692;BME280;61996;49.910;35.562;2023-05-03T00:04:55;100303.97;;;19.86;38.68
73692;BME280;61996;49.910;35.562;2023-05-03T00:08:02;100309.69;;;19.81;38.78
73692;BME280;61996;49.910;35.562;2023-05-03T00:11:08;100305.94;;;19.84;38.65
73692;BME280;61996;49.910;35.562;2023-05-03T00:14:13;100310.16;;;19.86;39.34
73692;BME280;61996;49.910;35.562;2023-05-03T00:17:17;100308.47;;;19.85;38.87
73692;BME280;61996;49.910;35.562;2023-05-03T00:20:22;100312.50;;;19.80;38.94
73692;BME280;61996;49.910;35.562;2023-05-03T00:23:26;100301.94;;;19.78;38.68
73692;BME280;61996;49.910;35.562;2023-05-03T00:26:32;100310.94;;;19.77;38.59
73692;BME280;61996;49.910;35.562;2023-05-03T00:29:37;100294.50;;;19.82;38.40
73692;BME280;61996;49.910;35.562;2023-05-03T00:32:42;100307.16;;;19.80;38.52
73692;BME280;61996;49.910;35.562;2023-05-03T00:35:47;100311.06;;;19.76;38.46
73692;BME280;61996;49.910;35.562;2023-05-03T00:38:50;100305.13;;;19.72;38.42
73692;BME280;61996;49.910;35.562;2023-05-03T00:41:56;100306.31;;;19.79;38.63
73692;BME280;61996;49.910;35.562;2023-05-03T00:44:59;100305.59;;;19.77;38.71
73692;BME280;61996;49.910;35.562;2023-05-03T00:48:05;100313.84;;;19.74;38.34
73692;BME280;61996;49.910;35.562;2023-05-03T00:51:08;100316.66;;;19.73;38.25
73692;BME280;61996;49.910;35.562;2023-05-03T00:54:14;100305.13;;;19.72;38.30
73692;BME280;61996;49.910;35.562;2023-05-03T00:57:19;100303.16;;;19.74;39.02
73692;BME280;61996;49.910;35.562;2023-05-03T01:00:23;100315.22;;;19.68;38.22
73692;BME280;61996;49.910;35.562;2023-05-03T01:03:26;100312.31;;;19.60;38.39
73692;BME280;61996;49.910;35.562;2023-05-03T01:06:31;100307.59;;;19.64;38.38
73692;BME280;61996;49.910;35.562;2023-05-03T01:09:36;100312.56;;;19.68;38.44
73692;BME280;61996;49.910;35.562;2023-05-03T01:12:43;100316.91;;;19.69;38.41
73692;BME280;61996;49.910;35.562;2023-05-03T01:15:52;100320.56;;;19.68;38.16
73692;BME280;61996;49.910;35.562;2023-05-03T01:18:59;100320.94;;;19.64;38.32
73692;BME280;61996;49.910;35.562;2023-05-03T01:22:08;100336.81;;;19.65;38.18
73692;BME280;61996;49.910;35.562;2023-05-03T01:25:13;100333.16;;;19.66;37.94
73692;BME280;61996;49.910;35.562;2023-05-03T01:28:17;100323.75;;;19.62;38.09
73692;BME280;61996;49.910;35.562;2023-05-03T01:31:21;100332.81;;;19.60;38.23
73692;BME280;61996;49.910;35.562;2023-05-03T01:34:27;100335.38;;;19.61;38.20
73692;BME280;61996;49.910;35.562;2023-05-03T01:37:32;100330.16;;;19.60;38.30
73692;BME280;61996;49.910;35.562;2023-05-03T01:40:39;100326.50;;;19.61;38.01
73692;BME280;61996;49.910;35.562;2023-05-03T01:43:43;100331.59;;;19.64;38.28
73692;BME280;61996;49.910;35.562;2023-05-03T01:46:47;100335.72;;;19.57;38.28
73692;BME280;61996;49.910;35.562;2023-05-03T01:49:50;100332.97;;;19.58;38.28
73692;BME280;61996;49.910;35.562;2023-05-03T01:52:53;100332.72;;;19.61;38.21
73692;BME280;61996;49.910;35.562;2023-05-03T01:55:57;100327.00;;;19.55;38.25
73692;BME280;61996;49.910;35.562;2023-05-03T01:58:59;100325.78;;;19.70;38.64
73692;BME280;61996;49.910;35.562;2023-05-03T02:02:02;100323.75;;;19.62;38.12
73692;BME280;61996;49.910;35.562;2023-05-03T02:05:05;100332.13;;;19.58;38.10
73692;BME280;61996;49.910;35.562;2023-05-03T02:08:08;100325.19;;;19.55;38.42
73692;BME280;61996;49.910;35.562;2023-05-03T02:11:12;100319.66;;;19.47;38.12
73692;BME280;61996;49.910;35.562;2023-05-03T02:14:15;100332.97;;;19.47;38.10
73692;BME280;61996;49.910;35.562;2023-05-03T02:17:18;100328.50;;;19.48;38.26
73692;BME280;61996;49.910;35.562;2023-05-03T02:20:21;100331.75;;;19.51;38.15
73692;BME280;61996;49.910;35.562;2023-05-03T02:23:24;100337.91;;;19.52;38.10
73692;BME280;61996;49.910;35.562;2023-05-03T02:26:28;100328.09;;;19.52;38.24
73692;BME280;61996;49.910;35.562;2023-05-03T02:29:31;100335.97;;;19.54;38.42
73692;BME280;61996;49.910;35.562;2023-05-03T02:32:33;100337.69;;;19.55;38.72
73692;BME280;61996;49.910;35.562;2023-05-03T02:35:36;100339.25;;;19.46;38.06
73692;BME280;61996;49.910;35.562;2023-05-03T02:38:39;100343.75;;;19.45;38.09
73692;BME280;61996;49.910;35.562;2023-05-03T02:41:43;100347.25;;;19.46;38.14
73692;BME280;61996;49.910;35.562;2023-05-03T02:44:46;100348.84;;;19.49;38.14
73692;BME280;61996;49.910;35.562;2023-05-03T02:47:49;100348.34;;;19.55;38.46
73692;BME280;61996;49.910;35.562;2023-05-03T02:50:52;100345.06;;;19.51;38.26
73692;BME280;61996;49.910;35.562;2023-05-03T02:53:55;100343.88;;;19.44;38.01
73692;BME280;61996;49.910;35.562;2023-05-03T02:56:59;100350.69;;;19.48;38.25
73692;BME280;61996;49.910;35.562;2023-05-03T03:00:04;100355.38;;;19.56;38.12
73692;BME280;61996;49.910;35.562;2023-05-03T03:03:07;100358.44;;;19.62;38.08
73692;BME280;61996;49.910;35.562;2023-05-03T03:06:10;100357.09;;;19.45;38.27
73692;BME280;61996;49.910;35.562;2023-05-03T03:09:13;100368.16;;;19.41;38.19
73692;BME280;61996;49.910;35.562;2023-05-03T03:12:17;100360.09;;;19.52;38.03
73692;BME280;61996;49.910;35.562;2023-05-03T03:15:19;100363.75;;;19.51;38.18
73692;BME280;61996;49.910;35.562;2023-05-03T03:18:22;100357.44;;;19.52;38.08
73692;BME280;61996;49.910;35.562;2023-05-03T03:21:25;100366.78;;;19.47;38.23
73692;BME280;61996;49.910;35.562;2023-05-03T03:24:30;100362.53;;;19.55;38.22
73692;BME280;61996;49.910;35.562;2023-05-03T03:27:34;100355.03;;;19.49;38.15
73692;BME280;61996;49.910;35.562;2023-05-03T03:30:40;100371.28;;;19.57;38.01
73692;BME280;61996;49.910;35.562;2023-05-03T03:33:43;100369.47;;;19.58;37.97
73692;BME280;61996;49.910;35.562;2023-05-03T03:36:45;100362.63;;;19.54;37.75
73692;BME280;61996;49.910;35.562;2023-05-03T03:39:48;100371.75;;;19.51;37.81
73692;BME280;61996;49.910;35.562;2023-05-03T03:42:53;100372.00;;;19.59;37.83
73692;BME280;61996;49.910;35.562;2023-05-03T03:45:55;100366.06;;;19.56;37.77
73692;BME280;61996;49.910;35.562;2023-05-03T03:48:58;100371.63;;;19.64;37.88
73692;BME280;61996;49.910;35.562;2023-05-03T03:52:01;100363.88;;;19.61;37.53
73692;BME280;61996;49.910;35.562;2023-05-03T03:55:04;100366.91;;;19.56;37.88
73692;BME280;61996;49.910;35.562;2023-05-03T03:58:08;100369.81;;;19.64;37.60
73692;BME280;61996;49.910;35.562;2023-05-03T04:01:11;100370.41;;;19.68;37.65
73692;BME280;61996;49.910;35.562;2023-05-03T04:04:14;100362.41;;;19.68;37.48
73692;BME280;61996;49.910;35.562;2023-05-03T04:07:17;100371.38;;;19.67;37.22
73692;BME280;61996;49.910;35.562;2023-05-03T04:10:19;100375.16;;;19.64;37.39
73692;BME280;61996;49.910;35.562;2023-05-03T04:13:24;100378.28;;;19.69;37.14
73692;BME280;61996;49.910;35.562;2023-05-03T04:16:26;100378.28;;;19.69;37.57
73692;BME280;61996;49.910;35.562;2023-05-03T04:19:29;100384.47;;;19.70;37.42
73692;BME280;61996;49.910;35.562;2023-05-03T04:22:32;100382.38;;;19.74;37.28
73692;BME280;61996;49.910;35.562;2023-05-03T04:25:35;100386.66;;;19.76;37.27
73692;BME280;61996;49.910;35.562;2023-05-03T04:28:40;100384.66;;;19.89;37.65
73692;BME280;61996;49.910;35.562;2023-05-03T04:31:43;100378.97;;;19.83;37.35
73692;BME280;61996;49.910;35.562;2023-05-03T04:34:46;100376.41;;;19.81;37.44
73692;BME280;61996;49.910;35.562;2023-05-03T04:37:51;100375.47;;;19.82;37.28
73692;BME280;61996;49.910;35.562;2023-05-03T04:40:53;100383.72;;;19.79;37.18
73692;BME280;61996;49.910;35.562;2023-05-03T04:43:58;100374.81;;;19.90;37.32
73692;BME280;61996;49.910;35.562;2023-05-03T04:47:00;100381.66;;;19.83;37.07
73692;BME280;61996;49.910;35.562;2023-05-03T04:50:04;100394.34;;;19.90;37.44
73692;BME280;61996;49.910;35.562;2023-05-03T04:53:08;100387.44;;;19.88;37.45
73692;BME280;61996;49.910;35.562;2023-05-03T04:56:11;100391.94;;;19.87;37.36
73692;BME280;61996;49.910;35.562;2023-05-03T04:59:15;100389.78;;;20.02;37.30
73692;BME280;61996;49.910;35.562;2023-05-03T05:02:18;100386.28;;;20.02;37.29
73692;BME280;61996;49.910;35.562;2023-05-03T05:05:21;100383.75;;;20.00;37.09
73692;BME280;61996;49.910;35.562;2023-05-03T05:08:24;100390.06;;;19.99;37.24
73692;BME280;61996;49.910;35.562;2023-05-03T05:11:27;100382.88;;;20.11;37.16
73692;BME280;61996;49.910;35.562;2023-05-03T05:14:31;100385.19;;;20.04;37.09
73692;BME280;61996;49.910;35.562;2023-05-03T05:17:34;100401.28;;;20.14;37.16
73692;BME280;61996;49.910;35.562;2023-05-03T05:20:37;100395.69;;;20.17;37.36
73692;BME280;61996;49.910;35.562;2023-05-03T05:23:40;100399.13;;;20.08;37.34
73692;BME280;61996;49.910;35.562;2023-05-03T05:26:43;100406.28;;;20.07;37.14
73692;BME280;61996;49.910;35.562;2023-05-03T05:29:47;100401.41;;;20.12;37.43
73692;BME280;61996;49.910;35.562;2023-05-03T05:32:50;100397.19;;;20.10;36.64
73692;BME280;61996;49.910;35.562;2023-05-03T05:35:53;100399.59;;;20.13;36.98
73692;BME280;61996;49.910;35.562;2023-05-03T05:38:55;100402.13;;;20.14;36.62
73692;BME280;61996;49.910;35.562;2023-05-03T05:41:58;100401.25;;;20.25;36.48
73692;BME280;61996;49.910;35.562;2023-05-03T05:45:03;100402.47;;;20.21;36.24
73692;BME280;61996;49.910;35.562;2023-05-03T05:48:08;100397.44;;;20.27;36.87
73692;BME280;61996;49.910;35.562;2023-05-03T05:51:11;100392.78;;;20.41;36.48
73692;BME280;61996;49.910;35.562;2023-05-03T05:54:14;100392.50;;;20.23;36.08
73692;BME280;61996;49.910;35.562;2023-05-03T05:57:16;100386.38;;;20.32;36.27
73692;BME280;61996;49.910;35.562;2023-05-03T06:00:21;100387.75;;;20.26;36.03
73692;BME280;61996;49.910;35.562;2023-05-03T06:03:24;100382.88;;;20.32;35.96
73692;BME280;61996;49.910;35.562;2023-05-03T06:06:27;100387.22;;;20.33;35.92
73692;BME280;61996;49.910;35.562;2023-05-03T06:09:30;100377.78;;;20.29;36.17
73692;BME280;61996;49.910;35.562;2023-05-03T06:12:33;100374.84;;;20.32;36.27
73692;BME280;61996;49.910;35.562;2023-05-03T06:15:38;100381.47;;;20.37;35.91
73692;BME280;61996;49.910;35.562;2023-05-03T06:18:41;100375.28;;;20.48;36.14
73692;BME280;61996;49.910;35.562;2023-05-03T06:21:44;100378.56;;;20.40;35.98
73692;BME280;61996;49.910;35.562;2023-05-03T06:24:47;100385.47;;;20.43;36.13
73692;BME280;61996;49.910;35.562;2023-05-03T06:27:50;100381.72;;;20.45;36.15
73692;BME280;61996;49.910;35.562;2023-05-03T06:30:54;100386.94;;;20.47;35.91
73692;BME280;61996;49.910;35.562;2023-05-03T06:33:57;100384.06;;;20.60;35.93
73692;BME280;61996;49.910;35.562;2023-05-03T06:37:00;100384.00;;;20.50;35.90
73692;BME280;61996;49.910;35.562;2023-05-03T06:40:03;100386.97;;;20.57;36.06
73692;BME280;61996;49.910;35.562;2023-05-03T06:43:07;100386.41;;;20.53;36.02
73692;BME280;61996;49.910;35.562;2023-05-03T06:46:11;100387.16;;;20.44;35.59
73692;BME280;61996;49.910;35.562;2023-05-03T06:49:14;100385.28;;;20.56;35.78
73692;BME280;61996;49.910;35.562;2023-05-03T06:52:17;100387.13;;;20.55;35.87
73692;BME280;61996;49.910;35.562;2023-05-03T06:55:19;100388.09;;;20.54;35.90
73692;BME280;61996;49.910;35.562;2023-05-03T06:58:22;100388.16;;;20.64;35.41
73692;BME280;61996;49.910;35.562;2023-05-03T07:01:26;100386.91;;;20.68;35.58
73692;BME280;61996;49.910;35.562;2023-05-03T07:04:29;100388.88;;;20.66;35.46
73692;BME280;61996;49.910;35.562;2023-05-03T07:07:32;100378.59;;;20.61;35.43
73692;BME280;61996;49.910;35.562;2023-05-03T07:10:35;100380.50;;;20.80;35.23
73692;BME280;61996;49.910;35.562;2023-05-03T07:13:38;100380.19;;;20.73;35.34
73692;BME280;61996;49.910;35.562;2023-05-03T07:16:42;100385.34;;;20.65;35.21
73692;BME280;61996;49.910;35.562;2023-05-03T07:19:45;100377.47;;;20.64;35.09
73692;BME280;61996;49.910;35.562;2023-05-03T07:22:49;100377.03;;;20.59;34.90
73692;BME280;61996;49.910;35.562;2023-05-03T07:25:52;100380.72;;;20.67;34.99
73692;BME280;61996;49.910;35.562;2023-05-03T07:28:55;100377.78;;;20.70;34.92
73692;BME280;61996;49.910;35.562;2023-05-03T07:31:59;100381.88;;;20.74;34.81
73692;BME280;61996;49.910;35.562;2023-05-03T07:35:02;100382.28;;;20.70;34.43
73692;BME280;61996;49.910;35.562;2023-05-03T07:38:05;100387.25;;;20.74;34.86
73692;BME280;61996;49.910;35.562;2023-05-03T07:41:08;100385.53;;;20.73;35.07
73692;BME280;61996;49.910;35.562;2023-05-03T07:44:11;100383.97;;;20.71;34.68
73692;BME280;61996;49.910;35.562;2023-05-03T07:47:15;100373.91;;;20.84;34.45
73692;BME280;61996;49.910;35.562;2023-05-03T07:50:18;100381.75;;;20.76;34.54
73692;BME280;61996;49.910;35.562;2023-05-03T07:53:21;100380.91;;;20.75;34.57
73692;BME280;61996;49.910;35.562;2023-05-03T07:56:25;100378.25;;;20.85;34.51
73692;BME280;61996;49.910;35.562;2023-05-03T07:59:28;100375.72;;;20.84;34.65
73692;BME280;61996;49.910;35.562;2023-05-03T08:02:32;100379.38;;;20.83;34.69
73692;BME280;61996;49.910;35.562;2023-05-03T08:05:35;100371.09;;;20.86;34.75
73692;BME280;61996;49.910;35.562;2023-05-03T08:08:38;100382.34;;;20.79;34.81
73692;BME280;61996;49.910;35.562;2023-05-03T08:11:42;100387.41;;;20.83;34.62
73692;BME280;61996;49.910;35.562;2023-05-03T08:14:45;100372.59;;;20.78;33.81
73692;BME280;61996;49.910;35.562;2023-05-03T08:17:49;100370.91;;;20.77;34.47
73692;BME280;61996;49.910;35.562;2023-05-03T08:20:52;100369.00;;;20.89;34.30
73692;BME280;61996;49.910;35.562;2023-05-03T08:23:56;100368.63;;;20.94;34.46
73692;BME280;61996;49.910;35.562;2023-05-03T08:26:58;100374.34;;;20.89;34.25
73692;BME280;61996;49.910;35.562;2023-05-03T08:30:01;100356.63;;;20.88;34.31
73692;BME280;61996;49.910;35.562;2023-05-03T08:33:07;100357.50;;;20.98;34.32
73692;BME280;61996;49.910;35.562;2023-05-03T08:36:10;100351.72;;;20.93;33.97
73692;BME280;61996;49.910;35.562;2023-05-03T08:39:13;100349.34;;;21.00;34.07
73692;BME280;61996;49.910;35.562;2023-05-03T08:42:16;100352.28;;;20.97;33.87
73692;BME280;61996;49.910;35.562;2023-05-03T08:45:19;100343.44;;;20.96;34.00
73692;BME280;61996;49.910;35.562;2023-05-03T08:48:23;100334.03;;;21.02;34.24
73692;BME280;61996;49.910;35.562;2023-05-03T08:51:26;100328.97;;;21.08;34.09
73692;BME280;61996;49.910;35.562;2023-05-03T08:54:29;100322.50;;;21.11;33.98
73692;BME280;61996;49.910;35.562;2023-05-03T08:57:32;100334.75;;;21.14;33.99
73692;BME280;61996;49.910;35.562;2023-05-03T09:00:35;100319.53;;;21.04;33.45
73692;BME280;61996;49.910;35.562;2023-05-03T09:03:40;100326.31;;;21.08;33.83
73692;BME280;61996;49.910;35.562;2023-05-03T09:06:50;100323.47;;;21.10;34.90
73692;BME280;61996;49.910;35.562;2023-05-03T09:10:16;100329.97;;;21.07;33.89
73692;BME280;61996;49.910;35.562;2023-05-03T09:13:28;100320.13;;;21.18;33.95
73692;BME280;61996;49.910;35.562;2023-05-03T09:16:31;100318.84;;;21.12;33.46
73692;BME280;61996;49.910;35.562;2023-05-03T09:19:47;100316.16;;;21.12;34.02
73692;BME280;61996;49.910;35.562;2023-05-03T09:22:50;100319.00;;;21.20;34.44
73692;BME280;61996;49.910;35.562;2023-05-03T09:25:54;100309.13;;;21.21;34.24
73692;BME280;61996;49.910;35.562;2023-05-03T09:28:57;100300.25;;;21.20;34.50
73692;BME280;61996;49.910;35.562;2023-05-03T09:32:00;100294.91;;;21.20;35.02
73692;BME280;61996;49.910;35.562;2023-05-03T09:35:11;100305.22;;;21.25;35.17
73692;BME280;61996;49.910;35.562;2023-05-03T09:38:24;100304.00;;;21.29;34.56
73692;BME280;61996;49.910;35.562;2023-05-03T09:41:27;100297.81;;;21.28;34.80
73692;BME280;61996;49.910;35.562;2023-05-03T09:44:40;100300.88;;;21.33;34.38
73692;BME280;61996;49.910;35.562;2023-05-03T09:47:48;100294.13;;;21.29;33.81
73692;BME280;61996;49.910;35.562;2023-05-03T09:50:52;100303.84;;;21.30;34.02
73692;BME280;61996;49.910;35.562;2023-05-03T09:53:55;100302.16;;;21.29;34.94
73692;BME280;61996;49.910;35.562;2023-05-03T09:56:59;100288.94;;;21.38;35.00
73692;BME280;61996;49.910;35.562;2023-05-03T10:00:03;100290.06;;;21.35;34.73
73692;BME280;61996;49.910;35.562;2023-05-03T10:03:06;100289.63;;;21.40;33.75
73692;BME280;61996;49.910;35.562;2023-05-03T10:06:21;100293.44;;;21.47;33.50
73692;BME280;61996;49.910;35.562;2023-05-03T10:09:25;100287.38;;;21.45;33.65
73692;BME280;61996;49.910;35.562;2023-05-03T10:12:30;100290.06;;;21.54;33.44
73692;BME280;61996;49.910;35.562;2023-05-03T10:15:35;100292.19;;;21.51;33.50
73692;BME280;61996;49.910;35.562;2023-05-03T10:22:01;100279.78;;;21.50;33.44
73692;BME280;61996;49.910;35.562;2023-05-03T10:25:08;100279.91;;;21.39;34.92
73692;BME280;61996;49.910;35.562;2023-05-03T10:28:11;100266.97;;;21.44;34.20
73692;BME280;61996;49.910;35.562;2023-05-03T10:34:36;100269.78;;;21.61;34.54
73692;BME280;61996;49.910;35.562;2023-05-03T10:37:42;100275.28;;;21.50;36.36
73692;BME280;61996;49.910;35.562;2023-05-03T10:40:46;100275.69;;;21.46;37.27
73692;BME280;61996;49.910;35.562;2023-05-03T10:43:48;100283.47;;;21.49;36.98
73692;BME280;61996;49.910;35.562;2023-05-03T10:46:52;100267.25;;;21.60;35.75
73692;BME280;61996;49.910;35.562;2023-05-03T10:56:49;100273.44;;;21.51;35.93
73692;BME280;61996;49.910;35.562;2023-05-03T10:59:52;100274.28;;;21.51;35.87
73692;BME280;61996;49.910;35.562;2023-05-03T11:06:29;100262.19;;;21.57;35.44
73692;BME280;61996;49.910;35.562;2023-05-03T11:09:33;100257.41;;;21.51;35.63
73692;BME280;61996;49.910;35.562;2023-05-03T11:12:37;100250.75;;;21.55;35.50
73692;BME280;61996;49.910;35.562;2023-05-03T11:15:40;100263.19;;;21.56;35.65
73692;BME280;61996;49.910;35.562;2023-05-03T11:18:43;100255.41;;;21.62;34.93
73692;BME280;61996;49.910;35.562;2023-05-03T11:21:46;100253.59;;;21.63;35.15
73692;BME280;61996;49.910;35.562;2023-05-03T11:24:49;100252.88;;;21.61;35.13
73692;BME280;61996;49.910;35.562;2023-05-03T11:27:53;100258.66;;;21.66;34.55
73692;BME280;61996;49.910;35.562;2023-05-03T11:30:56;100249.09;;;21.64;35.16
73692;BME280;61996;49.910;35.562;2023-05-03T11:34:00;100246.41;;;21.64;35.25
73692;BME280;61996;49.910;35.562;2023-05-03T11:37:03;100250.31;;;21.69;35.33
73692;BME280;61996;49.910;35.562;2023-05-03T11:40:12;100246.53;;;21.72;35.11
73692;BME280;61996;49.910;35.562;2023-05-03T11:43:17;100239.34;;;21.72;35.09
73692;BME280;61996;49.910;35.562;2023-05-03T11:46:21;100249.34;;;21.80;34.03
73692;BME280;61996;49.910;35.562;2023-05-03T11:49:27;100244.69;;;21.82;34.02
73692;BME280;61996;49.910;35.562;2023-05-03T11:52:30;100245.13;;;21.77;34.64
73692;BME280;61996;49.910;35.562;2023-05-03T11:55:36;100233.81;;;21.83;34.98
73692;BME280;61996;49.910;35.562;2023-05-03T11:58:49;100228.22;;;21.77;35.34
73692;BME280;61996;49.910;35.562;2023-05-03T12:01:53;100232.56;;;21.87;33.63
73692;BME280;61996;49.910;35.562;2023-05-03T12:04:56;100228.91;;;21.79;34.93
73692;BME280;61996;49.910;35.562;2023-05-03T12:07:59;100232.59;;;21.78;34.24
73692;BME280;61996;49.910;35.562;2023-05-03T12:11:03;100222.41;;;21.81;34.59
73692;BME280;61996;49.910;35.562;2023-05-03T12:14:11;100231.13;;;21.93;33.40
73692;BME280;61996;49.910;35.562;2023-05-03T12:20:35;100206.91;;;21.85;35.03
73692;BME280;61996;49.910;35.562;2023-05-03T12:23:41;100204.94;;;21.87;34.51
73692;BME280;61996;49.910;35.562;2023-05-03T12:26:46;100207.31;;;21.90;34.76
73692;BME280;61996;49.910;35.562;2023-05-03T12:29:50;100200.00;;;21.92;34.45
73692;BME280;61996;49.910;35.562;2023-05-03T12:32:53;100192.22;;;21.99;33.77
73692;BME280;61996;49.910;35.562;2023-05-03T12:35:58;100197.13;;;22.03;33.49
73692;BME280;61996;49.910;35.562;2023-05-03T12:39:04;100192.06;;;22.00;34.32
73692;BME280;61996;49.910;35.562;2023-05-03T12:42:10;100185.16;;;22.07;33.06
73692;BME280;61996;49.910;35.562;2023-05-03T12:45:17;100180.78;;;22.06;33.23
73692;BME280;61996;49.910;35.562;2023-05-03T12:48:22;100190.47;;;22.27;31.15
73692;BME280;61996;49.910;35.562;2023-05-03T12:51:25;100177.53;;;22.03;34.06
73692;BME280;61996;49.910;35.562;2023-05-03T12:54:33;100185.84;;;22.19;32.95
73692;BME280;61996;49.910;35.562;2023-05-03T12:57:41;100181.63;;;22.07;33.14
73692;BME280;61996;49.910;35.562;2023-05-03T13:00:48;100172.75;;;22.06;33.27
73692;BME280;61996;49.910;35.562;2023-05-03T13:04:05;100180.44;;;22.29;31.56
73692;BME280;61996;49.910;35.562;2023-05-03T13:07:28;100166.09;;;22.20;33.03
73692;BME280;61996;49.910;35.562;2023-05-03T13:10:36;100172.88;;;22.14;33.06
73692;BME280;61996;49.910;35.562;2023-05-03T13:13:41;100160.91;;;22.09;33.07
73692;BME280;61996;49.910;35.562;2023-05-03T13:16:46;100166.72;;;22.32;32.57
73692;BME280;61996;49.910;35.562;2023-05-03T13:19:49;100163.69;;;22.17;33.35
73692;BME280;61996;49.910;35.562;2023-05-03T13:22:53;100158.91;;;22.21;32.71
73692;BME280;61996;49.910;35.562;2023-05-03T13:25:56;100157.06;;;22.21;33.35
73692;BME280;61996;49.910;35.562;2023-05-03T13:28:59;100173.56;;;22.26;33.27
73692;BME280;61996;49.910;35.562;2023-05-03T13:32:04;100160.53;;;22.31;32.75
73692;BME280;61996;49.910;35.562;2023-05-03T13:35:07;100157.84;;;22.31;33.03
73692;BME280;61996;49.910;35.562;2023-05-03T13:38:11;100148.78;;;22.42;31.82
73692;BME280;61996;49.910;35.562;2023-05-03T13:41:14;100146.63;;;22.46;32.03
73692;BME280;61996;49.910;35.562;2023-05-03T13:44:17;100160.84;;;22.28;32.86
73692;BME280;61996;49.910;35.562;2023-05-03T13:47:22;100162.25;;;22.32;33.12
73692;BME280;61996;49.910;35.562;2023-05-03T13:50:29;100155.56;;;22.36;32.52
73692;BME280;61996;49.910;35.562;2023-05-03T13:53:32;100159.75;;;22.49;30.99
73692;BME280;61996;49.910;35.562;2023-05-03T13:56:35;100154.47;;;22.29;32.34
73692;BME280;61996;49.910;35.562;2023-05-03T13:59:38;100153.47;;;22.40;32.39
73692;BME280;61996;49.910;35.562;2023-05-03T14:02:43;100159.34;;;22.43;32.18
73692;BME280;61996;49.910;35.562;2023-05-03T14:05:46;100157.97;;;22.39;32.05
73692;BME280;61996;49.910;35.562;2023-05-03T14:08:49;100148.78;;;22.42;32.49
73692;BME280;61996;49.910;35.562;2023-05-03T14:11:51;100150.06;;;22.38;32.45
73692;BME280;61996;49.910;35.562;2023-05-03T14:15:00;100142.66;;;22.50;32.13
73692;BME280;61996;49.910;35.562;2023-05-03T14:18:05;100140.66;;;22.52;32.54
73692;BME280;61996;49.910;35.562;2023-05-03T14:21:08;100144.41;;;22.41;32.05
73692;BME280;61996;49.910;35.562;2023-05-03T14:24:11;100144.69;;;22.38;32.63
73692;BME280;61996;49.910;35.562;2023-05-03T14:27:14;100141.91;;;22.39;33.12
73692;BME280;61996;49.910;35.562;2023-05-03T14:30:21;100142.41;;;22.43;32.29
73692;BME280;61996;49.910;35.562;2023-05-03T14:33:25;100136.06;;;22.44;32.44
73692;BME280;61996;49.910;35.562;2023-05-03T14:36:28;100140.75;;;22.42;32.64
73692;BME280;61996;49.910;35.562;2023-05-03T14:39:36;100143.81;;;22.47;32.53
73692;BME280;61996;49.910;35.562;2023-05-03T14:42:39;100137.91;;;22.43;32.89
73692;BME280;61996;49.910;35.562;2023-05-03T14:45:42;100137.31;;;22.50;31.98
73692;BME280;61996;49.910;35.562;2023-05-03T14:48:47;100133.69;;;22.41;32.71
73692;BME280;61996;49.910;35.562;2023-05-03T14:51:50;100134.38;;;22.43;32.68
73692;BME280;61996;49.910;35.562;2023-05-03T14:54:53;100133.34;;;22.54;32.26
73692;BME280;61996;49.910;35.562;2023-05-03T14:57:55;100136.47;;;22.49;32.11
73692;BME280;61996;49.910;35.562;2023-05-03T15:00:58;100132.94;;;22.49;31.54
73692;BME280;61996;49.910;35.562;2023-05-03T15:04:02;100128.94;;;22.53;31.41
73692;BME280;61996;49.910;35.562;2023-05-03T15:07:08;100123.22;;;22.48;32.35
73692;BME280;61996;49.910;35.562;2023-05-03T15:10:11;100116.56;;;22.52;32.62
73692;BME280;61996;49.910;35.562;2023-05-03T15:13:14;100119.47;;;22.58;32.10
73692;BME280;61996;49.910;35.562;2023-05-03T15:16:17;100124.00;;;22.58;32.19
73692;BME280;61996;49.910;35.562;2023-05-03T15:19:22;100107.91;;;22.58;32.63
73692;BME280;61996;49.910;35.562;2023-05-03T15:22:25;100123.91;;;22.50;34.63
73692;BME280;61996;49.910;35.562;2023-05-03T15:25:28;100127.16;;;22.53;34.33
73692;BME280;61996;49.910;35.562;2023-05-03T15:28:30;100112.03;;;22.52;33.29
73692;BME280;61996;49.910;35.562;2023-05-03T15:31:34;100125.84;;;22.57;33.03
73692;BME280;61996;49.910;35.562;2023-05-03T15:34:39;100120.47;;;22.57;32.58
73692;BME280;61996;49.910;35.562;2023-05-03T15:37:42;100116.94;;;22.57;32.48
73692;BME280;61996;49.910;35.562;2023-05-03T15:40:45;100117.63;;;22.59;32.73
73692;BME280;61996;49.910;35.562;2023-05-03T15:43:48;100123.72;;;22.61;32.09
73692;BME280;61996;49.910;35.562;2023-05-03T15:46:51;100118.72;;;22.66;31.45
73692;BME280;61996;49.910;35.562;2023-05-03T15:49:55;100122.88;;;22.60;32.56
73692;BME280;61996;49.910;35.562;2023-05-03T15:52:59;100125.84;;;22.57;32.64
73692;BME280;61996;49.910;35.562;2023-05-03T15:56:02;100124.16;;;22.56;33.12
73692;BME280;61996;49.910;35.562;2023-05-03T15:59:05;100122.31;;;22.57;32.61
73692;BME280;61996;49.910;35.562;2023-05-03T16:02:09;100123.31;;;22.56;32.54
73692;BME280;61996;49.910;35.562;2023-05-03T16:05:13;100116.63;;;22.60;31.78
73692;BME280;61996;49.910;35.562;2023-05-03T16:08:17;100118.38;;;22.51;33.41
73692;BME280;61996;49.910;35.562;2023-05-03T16:11:21;100125.75;;;21.84;32.07